createdAt,value
2019-05-07T00:01:17.625Z,8.73
2019-05-07T00:03:57.526Z,7.93
2019-05-07T00:07:10.433Z,7.80
2019-05-07T00:10:17.317Z,7.23
2019-05-07T00:13:22.654Z,7.10
2019-05-07T00:16:24.055Z,7.27
2019-05-07T00:19:22.935Z,6.87
2019-05-07T00:22:03.195Z,7.37
2019-05-07T00:24:42.988Z,7.60
2019-05-07T00:27:32.048Z,6.87
2019-05-07T00:30:12.596Z,6.87
2019-05-07T00:32:48.774Z,6.63
2019-05-07T00:35:45.238Z,8.00
2019-05-07T00:38:49.063Z,7.83
2019-05-07T00:41:35.232Z,7.63
2019-05-07T00:44:18.945Z,7.10
2019-05-07T00:46:57.720Z,7.97
2019-05-07T00:49:39.176Z,6.83
2019-05-07T00:52:26.846Z,7.83
2019-05-07T00:55:14.678Z,6.87
2019-05-07T00:57:53.243Z,8.07
2019-05-07T01:00:33.278Z,7.80
2019-05-07T01:03:12.906Z,7.20
2019-05-07T01:05:52.871Z,8.17
2019-05-07T01:08:40.019Z,6.87
2019-05-07T01:11:22.668Z,7.20
2019-05-07T01:14:15.817Z,7.27
2019-05-07T01:16:55.565Z,7.30
2019-05-07T01:19:44.765Z,7.30
2019-05-07T01:22:23.465Z,7.50
2019-05-07T01:28:09.505Z,8.47
2019-05-07T01:31:21.690Z,7.27
2019-05-07T01:34:09.102Z,7.00
2019-05-07T01:36:53.216Z,7.70
2019-05-07T01:42:36.713Z,7.77
2019-05-07T01:45:45.353Z,7.97
2019-05-07T01:48:34.539Z,8.70
2019-05-07T01:51:33.157Z,7.40
2019-05-07T01:54:16.896Z,8.10
2019-05-07T01:57:05.707Z,7.83
2019-05-07T01:59:45.985Z,8.10
2019-05-07T02:02:42.549Z,7.63
2019-05-07T02:05:42.396Z,7.53
2019-05-07T02:08:42.226Z,7.37
2019-05-07T02:11:34.833Z,7.27
2019-05-07T02:14:21.902Z,7.77
2019-05-07T02:17:03.025Z,7.13
2019-05-07T02:19:52.621Z,7.77
2019-05-07T02:22:47.551Z,7.57
2019-05-07T02:28:42.478Z,7.60
2019-05-07T02:31:28.140Z,7.80
2019-05-07T02:34:23.462Z,8.13
2019-05-07T02:37:09.830Z,8.37
2019-05-07T02:40:29.680Z,8.50
2019-05-07T02:43:22.750Z,8.40
2019-05-07T02:46:30.981Z,8.50
2019-05-07T02:49:24.451Z,8.30
2019-05-07T02:52:53.374Z,7.93
2019-05-07T02:55:53.899Z,9.10
2019-05-07T02:58:52.797Z,8.03
2019-05-07T03:01:36.711Z,8.23
2019-05-07T03:04:25.120Z,7.77
2019-05-07T03:07:18.425Z,8.10
2019-05-07T03:10:15.367Z,8.70
2019-05-07T03:13:06.202Z,8.23
2019-05-07T03:15:55.169Z,7.90
2019-05-07T03:18:44.025Z,7.00
2019-05-07T03:21:58.303Z,7.77
2019-05-07T03:24:48.282Z,8.23
2019-05-07T03:27:37.537Z,8.40
2019-05-07T03:30:56.872Z,8.47
2019-05-07T03:34:15.525Z,8.13
2019-05-07T03:37:09.142Z,8.10
2019-05-07T03:40:06.765Z,8.83
2019-05-07T03:42:53.563Z,8.37
2019-05-07T03:45:53.699Z,8.03
2019-05-07T03:48:34.686Z,9.30
2019-05-07T03:51:14.603Z,8.80
2019-05-07T03:53:53.644Z,9.37
2019-05-07T03:56:52.806Z,8.50
2019-05-07T03:59:58.928Z,7.23
2019-05-07T04:02:58.696Z,8.00
2019-05-07T04:05:52.863Z,8.30
2019-05-07T04:08:36.711Z,7.70
2019-05-07T04:11:19.409Z,8.20
2019-05-07T04:14:09.588Z,7.67
2019-05-07T04:17:18.549Z,8.87
2019-05-07T04:20:13.269Z,8.03
2019-05-07T04:23:04.449Z,8.77
2019-05-07T04:26:05.277Z,8.30
2019-05-07T04:29:05.509Z,9.33
2019-05-07T04:31:53.328Z,8.53
2019-05-07T04:34:52.963Z,8.30
2019-05-07T04:38:01.819Z,9.07
2019-05-07T04:40:43.156Z,8.53
2019-05-07T04:43:23.355Z,7.77
2019-05-07T04:46:03.608Z,7.70
2019-05-07T04:48:44.700Z,8.23
2019-05-07T04:51:25.509Z,8.87
2019-05-07T04:54:05.732Z,8.47
2019-05-07T04:57:23.670Z,7.40
2019-05-07T05:00:03.311Z,8.40
2019-05-07T05:02:44.782Z,7.63
2019-05-07T05:05:23.859Z,8.43
2019-05-07T05:08:03.905Z,7.83
2019-05-07T05:10:43.309Z,10.07
2019-05-07T05:13:23.241Z,8.83
2019-05-07T05:16:02.089Z,8.17
2019-05-07T05:18:41.993Z,7.97
2019-05-07T05:21:38.100Z,7.73
2019-05-07T05:24:17.362Z,8.57
2019-05-07T05:26:55.764Z,7.93
2019-05-07T05:29:35.622Z,6.30
2019-05-07T05:32:13.906Z,9.27
2019-05-07T05:34:54.387Z,6.50
2019-05-07T05:37:32.219Z,8.40
2019-05-07T05:40:12.226Z,7.97
2019-05-07T05:42:52.336Z,7.60
2019-05-07T05:45:43.420Z,7.50
2019-05-07T05:48:22.404Z,6.70
2019-05-07T05:51:03.186Z,6.80
2019-05-07T05:53:52.386Z,6.70
2019-05-07T05:56:52.001Z,7.07
2019-05-07T05:59:47.941Z,6.43
2019-05-07T06:02:23.733Z,6.73
2019-05-07T06:05:03.258Z,7.30
2019-05-07T06:07:54.792Z,7.00
2019-05-07T06:10:37.418Z,6.30
2019-05-07T06:13:19.050Z,6.70
2019-05-07T06:16:12.539Z,7.57
2019-05-07T06:19:03.154Z,6.83
2019-05-07T06:22:02.130Z,6.87
2019-05-07T06:24:44.766Z,6.43
2019-05-07T06:27:22.968Z,6.30
2019-05-07T06:30:04.806Z,7.00
2019-05-07T06:32:43.161Z,5.43
2019-05-07T06:35:22.977Z,5.70
2019-05-07T06:38:02.881Z,6.50
2019-05-07T06:40:45.452Z,6.77
2019-05-07T06:43:27.435Z,5.27
2019-05-07T06:46:06.719Z,5.13
2019-05-07T06:48:46.381Z,5.10
2019-05-07T06:51:28.367Z,5.27
2019-05-07T06:54:07.514Z,6.67
2019-05-07T06:56:45.679Z,5.83
2019-05-07T06:59:32.575Z,5.00
2019-05-07T07:02:27.094Z,5.83
2019-05-07T07:05:12.144Z,5.43
2019-05-07T07:07:55.633Z,4.87
2019-05-07T07:10:52.914Z,4.70
2019-05-07T07:13:32.145Z,5.20
2019-05-07T07:16:12.691Z,5.47
2019-05-07T07:18:55.339Z,5.40
2019-05-07T07:21:32.746Z,5.03
2019-05-07T07:24:12.724Z,6.03
2019-05-07T07:26:52.788Z,5.60
2019-05-07T07:29:33.590Z,5.33
2019-05-07T07:32:14.334Z,4.70
2019-05-07T07:34:55.878Z,5.13
2019-05-07T07:37:35.538Z,4.97
2019-05-07T07:40:34.073Z,5.17
2019-05-07T07:43:14.224Z,4.60
2019-05-07T07:45:53.262Z,5.00
2019-05-07T07:48:32.182Z,5.30
2019-05-07T07:51:13.588Z,5.20
2019-05-07T07:53:52.005Z,5.23
2019-05-07T07:56:52.645Z,5.00
2019-05-07T07:59:42.508Z,5.60
2019-05-07T08:02:22.959Z,6.60
2019-05-07T08:05:02.122Z,6.47
2019-05-07T08:07:39.318Z,5.47
2019-05-07T08:10:16.498Z,6.40
2019-05-07T08:12:53.626Z,5.53
2019-05-07T08:15:32.813Z,5.40
2019-05-07T08:18:11.823Z,5.80
2019-05-07T08:20:48.283Z,6.30
2019-05-07T08:23:25.446Z,6.63
2019-05-07T08:26:02.691Z,5.50
2019-05-07T08:28:41.820Z,6.40
2019-05-07T08:31:27.191Z,6.87
2019-05-07T08:34:22.780Z,7.13
2019-05-07T08:37:01.872Z,7.03
2019-05-07T08:39:39.189Z,7.47
2019-05-07T08:42:16.358Z,6.57
2019-05-07T08:44:55.085Z,7.70
2019-05-07T08:47:42.548Z,7.80
2019-05-07T08:50:19.795Z,7.23
2019-05-07T08:52:56.970Z,8.27
2019-05-07T08:55:34.064Z,8.03
2019-05-07T08:58:12.025Z,7.73
2019-05-07T09:00:49.215Z,8.93
2019-05-07T09:03:44.580Z,8.77
2019-05-07T09:06:23.340Z,7.20
2019-05-07T09:09:13.337Z,7.50
2019-05-07T09:11:51.900Z,7.83
2019-05-07T09:14:29.167Z,8.97
2019-05-07T09:17:06.264Z,8.83
2019-05-07T09:19:51.225Z,7.77
2019-05-07T09:22:24.563Z,8.30
2019-05-07T09:25:03.081Z,8.23
2019-05-07T09:27:44.759Z,9.10
2019-05-07T09:30:28.374Z,8.57
2019-05-07T09:33:06.813Z,7.47
2019-05-07T09:35:48.424Z,8.10
2019-05-07T09:38:32.791Z,7.63
2019-05-07T09:41:12.033Z,8.63
2019-05-07T09:43:49.311Z,9.17
2019-05-07T09:46:26.394Z,8.10
2019-05-07T09:49:04.227Z,8.67
2019-05-07T09:51:42.670Z,7.03
2019-05-07T09:54:23.112Z,6.30
2019-05-07T09:57:24.571Z,6.37
2019-05-07T09:59:47.996Z,6.03
2019-05-07T10:02:25.178Z,5.60
2019-05-07T10:05:02.645Z,5.87
2019-05-07T10:07:39.761Z,5.93
2019-05-07T10:10:16.907Z,6.07
2019-05-07T10:13:04.524Z,6.53
2019-05-07T10:15:41.875Z,6.83
2019-05-07T10:18:19.482Z,5.90
2019-05-07T10:20:56.637Z,5.80
2019-05-07T10:23:33.795Z,6.87
2019-05-07T10:26:12.566Z,6.63
2019-05-07T10:28:49.713Z,7.10
2019-05-07T10:31:26.889Z,7.23
2019-05-07T10:34:04.031Z,7.97
2019-05-07T10:36:42.182Z,8.03
2019-05-07T10:39:19.361Z,8.53
2019-05-07T10:41:57.847Z,7.83
2019-05-07T10:44:36.667Z,7.00
2019-05-07T10:47:27.675Z,7.13
2019-05-07T10:50:35.597Z,6.73
2019-05-07T10:53:02.188Z,6.93
2019-05-07T10:55:39.402Z,7.03
2019-05-07T10:58:16.605Z,6.93
2019-05-07T11:00:54.952Z,7.10
2019-05-07T11:03:32.532Z,7.67
2019-05-07T11:06:11.845Z,6.10
2019-05-07T11:08:48.550Z,6.27
2019-05-07T11:11:25.651Z,6.07
2019-05-07T11:14:02.807Z,6.47
2019-05-07T11:16:43.054Z,7.50
2019-05-07T11:19:21.998Z,6.70
2019-05-07T11:21:59.225Z,6.80
2019-05-07T11:24:36.412Z,7.10
2019-05-07T11:27:13.578Z,7.70
2019-05-07T11:29:50.735Z,7.90
2019-05-07T11:32:27.901Z,8.03
2019-05-07T11:35:07.957Z,7.20
2019-05-07T11:37:45.122Z,7.53
2019-05-07T11:40:22.913Z,7.93
2019-05-07T11:43:02.500Z,8.63
2019-05-07T11:45:59.101Z,7.67
2019-05-07T11:48:38.112Z,6.80
2019-05-07T11:51:35.451Z,8.03
2019-05-07T11:54:13.627Z,8.30
2019-05-07T11:56:51.971Z,8.70
2019-05-07T11:59:29.547Z,8.93
2019-05-07T12:02:06.863Z,10.10
2019-05-07T12:04:44.020Z,11.73
2019-05-07T12:07:22.347Z,11.10
2019-05-07T12:10:02.833Z,12.00
2019-05-07T12:12:40.058Z,10.87
2019-05-07T12:15:18.966Z,11.47
2019-05-07T12:17:56.157Z,12.83
2019-05-07T12:20:33.341Z,9.17
2019-05-07T12:23:12.136Z,9.50
2019-05-07T12:25:49.433Z,8.50
2019-05-07T12:28:26.558Z,9.30
2019-05-07T12:31:05.316Z,8.47
2019-05-07T12:33:52.105Z,8.60
2019-05-07T12:36:28.885Z,8.00
2019-05-07T12:39:08.184Z,7.07
2019-05-07T12:41:45.346Z,7.93
2019-05-07T12:44:22.510Z,9.03
2019-05-07T12:47:01.603Z,9.10
2019-05-07T12:49:38.448Z,9.17
2019-05-07T12:52:17.205Z,8.90
2019-05-07T12:54:56.027Z,9.73
2019-05-07T12:57:33.667Z,9.23
2019-05-07T13:00:29.268Z,9.83
2019-05-07T13:03:24.383Z,9.07
2019-05-07T13:06:02.522Z,10.37
2019-05-07T13:08:42.978Z,9.33
2019-05-07T13:11:22.127Z,8.67
2019-05-07T13:13:59.295Z,8.70
2019-05-07T13:16:37.324Z,9.70
2019-05-07T13:19:14.978Z,9.53
2019-05-07T13:21:52.493Z,9.07
2019-05-07T13:24:31.580Z,9.67
2019-05-07T13:27:08.611Z,10.07
2019-05-07T13:29:46.941Z,9.80
2019-05-07T13:32:24.140Z,9.30
2019-05-07T13:35:02.687Z,10.27
2019-05-07T13:37:57.978Z,10.00
2019-05-07T13:40:37.217Z,11.77
2019-05-07T13:43:23.064Z,9.77
2019-05-07T13:46:02.606Z,9.83
2019-05-07T13:48:45.658Z,8.77
2019-05-07T13:51:33.615Z,8.07
2019-05-07T13:54:16.090Z,8.20
2019-05-07T13:56:54.161Z,8.20
2019-05-07T13:59:32.501Z,9.33
2019-05-07T14:02:15.341Z,9.27
2019-05-07T14:04:52.660Z,9.33
2019-05-07T14:07:37.702Z,8.67
2019-05-07T14:10:17.038Z,9.67
2019-05-07T14:13:08.547Z,11.03
2019-05-07T14:15:42.601Z,9.87
2019-05-07T14:18:25.574Z,9.73
2019-05-07T14:21:13.046Z,8.70
2019-05-07T14:23:56.446Z,10.03
2019-05-07T14:26:33.749Z,10.40
2019-05-07T14:32:23.019Z,7.23
2019-05-07T14:35:08.887Z,7.83
2019-05-07T14:37:53.743Z,7.80
2019-05-07T14:40:42.966Z,7.30
2019-05-07T14:43:23.463Z,7.43
2019-05-07T14:46:02.595Z,7.57
2019-05-07T14:48:44.361Z,7.63
2019-05-07T14:51:23.777Z,7.57
2019-05-07T14:54:01.836Z,7.70
2019-05-07T14:56:42.861Z,9.20
2019-05-07T14:59:25.274Z,9.63
2019-05-07T15:02:07.847Z,8.77
2019-05-07T15:04:52.451Z,9.10
2019-05-07T15:07:35.044Z,8.27
2019-05-07T15:10:13.971Z,9.13
2019-05-07T15:12:57.450Z,8.03
2019-05-07T15:15:46.783Z,7.60
2019-05-07T15:18:28.475Z,8.03
2019-05-07T15:21:07.229Z,11.50
2019-05-07T15:23:47.864Z,11.30
2019-05-07T15:26:28.301Z,11.07
2019-05-07T15:29:15.423Z,13.23
2019-05-07T15:32:03.362Z,11.00
2019-05-07T15:34:43.991Z,12.97
2019-05-07T15:37:42.736Z,12.63
2019-05-07T15:40:28.367Z,11.10
2019-05-07T15:43:09.933Z,9.93
2019-05-07T15:45:52.296Z,11.23
2019-05-07T15:48:29.455Z,13.23
2019-05-07T15:51:17.055Z,10.93
2019-05-07T15:53:58.640Z,10.27
2019-05-07T15:56:36.159Z,11.93
2019-05-07T15:59:31.428Z,10.37
2019-05-07T16:02:14.433Z,10.47
2019-05-07T16:04:54.723Z,11.03
2019-05-07T16:07:35.846Z,9.33
2019-05-07T16:10:18.446Z,9.30
2019-05-07T16:13:05.081Z,10.57
2019-05-07T16:15:44.515Z,9.10
2019-05-07T16:18:29.340Z,9.50
2019-05-07T16:21:06.522Z,9.20
2019-05-07T16:23:43.680Z,9.10
2019-05-07T16:26:21.994Z,9.03
2019-05-07T16:28:59.249Z,8.80
2019-05-07T16:31:36.898Z,8.90
2019-05-07T16:34:14.047Z,9.00
2019-05-07T16:36:51.231Z,8.03
2019-05-07T16:39:28.403Z,8.30
2019-05-07T16:42:05.634Z,9.00
2019-05-07T16:44:42.738Z,7.90
2019-05-07T16:47:19.918Z,8.23
2019-05-07T16:49:57.066Z,7.97
2019-05-07T16:52:35.264Z,7.80
2019-05-07T16:55:12.505Z,7.80
2019-05-07T16:58:05.777Z,7.67
2019-05-07T17:00:47.692Z,8.10
2019-05-07T17:03:26.429Z,8.47
2019-05-07T17:06:03.612Z,8.87
2019-05-07T17:08:42.441Z,7.97
2019-05-07T17:11:19.775Z,8.73
2019-05-07T17:13:56.915Z,10.10
2019-05-07T17:16:34.123Z,8.70
2019-05-07T17:19:12.871Z,8.53
2019-05-07T17:21:52.026Z,8.73
2019-05-07T17:24:38.731Z,9.27
2019-05-07T17:27:16.047Z,9.17
2019-05-07T17:29:53.167Z,8.67
2019-05-07T17:32:32.126Z,9.40
2019-05-07T17:35:09.508Z,8.93
2019-05-07T17:37:46.642Z,10.20
2019-05-07T17:40:23.837Z,10.33
2019-05-07T17:43:03.000Z,11.60
2019-05-07T17:45:39.747Z,11.87
2019-05-07T17:48:16.911Z,12.33
2019-05-07T17:51:07.738Z,12.53
2019-05-07T17:53:56.709Z,11.07
2019-05-07T17:56:28.090Z,11.17
2019-05-07T17:59:05.311Z,11.60
2019-05-07T18:01:53.169Z,11.80
2019-05-07T18:04:33.764Z,12.77
2019-05-07T18:07:11.992Z,13.50
2019-05-07T18:13:00.063Z,11.23
2019-05-07T18:15:42.625Z,11.73
2019-05-07T18:18:24.609Z,11.80
2019-05-07T18:21:04.978Z,11.37
2019-05-07T18:23:42.614Z,11.60
2019-05-07T18:26:29.617Z,12.70
2019-05-07T18:28:58.802Z,16.23
2019-05-07T18:31:52.277Z,40.00
2019-05-07T18:34:32.005Z,33.07
2019-05-07T18:37:09.879Z,38.53
2019-05-07T18:39:52.197Z,63.63
2019-05-07T18:42:41.745Z,40.00
2019-05-07T18:45:24.574Z,14.30
2019-05-07T18:48:06.663Z,42.60
2019-05-07T18:50:59.787Z,34.90
2019-05-07T18:53:38.222Z,46.07
2019-05-07T18:56:29.136Z,38.10
2019-05-07T18:59:08.118Z,26.80
2019-05-07T19:01:46.319Z,24.50
2019-05-07T19:04:36.148Z,19.67
2019-05-07T19:07:16.983Z,18.07
2019-05-07T19:09:57.014Z,17.47
2019-05-07T19:12:39.349Z,18.07
2019-05-07T19:15:22.007Z,18.40
2019-05-07T19:18:02.704Z,18.80
2019-05-07T19:20:44.463Z,19.40
2019-05-07T19:23:28.289Z,20.53
2019-05-07T19:26:07.508Z,20.77
2019-05-07T19:28:47.917Z,20.73
2019-05-07T19:31:28.355Z,18.90
2019-05-07T19:34:12.453Z,18.33
2019-05-07T19:37:12.497Z,18.00
2019-05-07T19:39:54.296Z,19.13
2019-05-07T19:42:33.403Z,18.27
2019-05-07T19:45:12.783Z,19.13
2019-05-07T19:47:52.373Z,19.30
2019-05-07T19:50:35.239Z,20.73
2019-05-07T19:53:12.921Z,22.87
2019-05-07T19:56:04.867Z,22.40
2019-05-07T19:58:52.874Z,23.53
2019-05-07T20:01:33.655Z,22.70
2019-05-07T20:04:13.292Z,26.30
2019-05-07T20:06:55.159Z,29.60
2019-05-07T20:09:40.184Z,27.07
2019-05-07T20:12:20.909Z,27.37
2019-05-07T20:14:59.197Z,27.93
2019-05-07T20:17:43.026Z,26.47
2019-05-07T20:20:29.819Z,25.63
2019-05-07T20:23:07.827Z,27.67
2019-05-07T20:25:49.450Z,27.13
2019-05-07T20:28:27.051Z,28.77
2019-05-07T20:31:06.999Z,28.63
2019-05-07T20:33:46.821Z,29.67
2019-05-07T20:36:34.269Z,29.90
2019-05-07T20:39:14.951Z,29.40
2019-05-07T20:42:03.153Z,29.20
2019-05-07T20:44:42.570Z,29.63
2019-05-07T20:47:28.537Z,29.60
2019-05-07T20:50:08.203Z,27.07
2019-05-07T20:52:53.170Z,27.67
2019-05-07T20:55:45.865Z,27.10
2019-05-07T20:58:26.025Z,25.03
2019-05-07T21:01:22.123Z,25.83
2019-05-07T21:04:22.238Z,25.80
2019-05-07T21:07:11.805Z,25.50
2019-05-07T21:09:54.306Z,24.67
2019-05-07T21:12:38.581Z,26.63
2019-05-07T21:15:42.788Z,27.17
2019-05-07T21:18:46.195Z,26.03
2019-05-07T21:21:37.572Z,24.70
2019-05-07T21:24:32.879Z,25.60
2019-05-07T21:27:16.164Z,25.53
2019-05-07T21:30:24.024Z,23.93
2019-05-07T21:33:07.051Z,23.97
2019-05-07T21:35:48.358Z,24.10
2019-05-07T21:38:38.327Z,23.90
2019-05-07T21:41:22.689Z,25.30
2019-05-07T21:44:03.248Z,27.27
2019-05-07T21:46:44.061Z,26.43
2019-05-07T21:49:35.657Z,25.50
2019-05-07T21:52:25.887Z,24.77
2019-05-07T21:55:12.823Z,23.43
2019-05-07T21:58:09.309Z,22.43
2019-05-07T22:00:57.939Z,24.67
2019-05-07T22:03:52.383Z,24.17
2019-05-07T22:06:32.848Z,24.57
2019-05-07T22:09:19.485Z,24.00
2019-05-07T22:12:22.482Z,27.10
2019-05-07T22:15:05.661Z,25.07
2019-05-07T22:17:45.436Z,28.20
2019-05-07T22:20:32.905Z,28.83
2019-05-07T22:23:17.547Z,24.87
2019-05-07T22:26:20.183Z,27.63
2019-05-07T22:29:07.844Z,27.37
2019-05-07T22:32:31.072Z,24.33
2019-05-07T22:35:24.478Z,25.13
2019-05-07T22:38:22.790Z,26.40
2019-05-07T22:41:15.202Z,26.37
2019-05-07T22:44:06.711Z,25.07
2019-05-07T22:46:52.827Z,25.83
2019-05-07T22:49:41.976Z,26.63
2019-05-07T22:52:24.641Z,27.63
2019-05-07T22:55:13.960Z,27.70
2019-05-07T22:58:03.342Z,26.53
2019-05-07T23:01:02.547Z,27.77
2019-05-07T23:03:54.880Z,27.63
2019-05-07T23:07:02.443Z,26.27
2019-05-07T23:09:41.935Z,26.87
2019-05-07T23:12:32.614Z,26.40
2019-05-07T23:15:22.464Z,27.50
2019-05-07T23:18:14.071Z,26.47
2019-05-07T23:21:05.102Z,28.07
2019-05-07T23:23:59.146Z,28.27
2019-05-07T23:26:48.101Z,29.60
2019-05-07T23:29:22.495Z,28.13
2019-05-07T23:32:18.585Z,26.83
2019-05-07T23:35:06.483Z,27.73
2019-05-07T23:38:07.275Z,25.83
2019-05-07T23:44:12.686Z,29.23
2019-05-07T23:47:02.601Z,28.53
2019-05-07T23:50:02.065Z,28.20
2019-05-07T23:52:49.036Z,28.97
2019-05-07T23:55:56.443Z,31.00
2019-05-07T23:58:56.267Z,29.37
